BFD weather

Bradford Regional Airport
Bradford, Pennsylvania, United States

Public forecast

Using degrees Fahrenheit for public forecast. Weather courtesy of forecast.io.

METAR (pilot weather report)

Retrieved 2019/04/23 20:53 UTC (54 minutes ago):

KBFD 232053Z AUTO 17006KT 10SM BKN038 OVC085 15/11 A2980 RMK AO2 LTG DSNT S RAB1956E18 SLP092 P0000 60010 T01500111 56020

TAF (pilot weather forecast)

Retrieved 2019/04/23 18:54 UTC (3 hours ago):

TAF KBFD 231753Z 2318/2418 15008KT 6SM -RA BR VCTS SCT040CB OVC060 FM232100 25012G18KT P6SM -RA VCTS SCT035 OVC050CB FM240000 27012G18KT P6SM SCT015 OVC025 FM240300 30012G18KT P6SM SCT025 BKN080